Ana Sayfa
METAR-TAF:

METAR-TAF

Havaalanları :

Havana, Küba

Enlem: 22-59N, Boylam: 082-24W, yükseklik: 59 m

Güncel hava durumu gözlemi

Rapor saat 08:55 UTC de 26 dakika önce yapıldı.
Sakin rüzgar
Sıcaklık 10°C
Nem 93%
Basınç 1022 hPa
Görüş mesafesi: 8000 m
2500 ft yükseklikte az bulutlu

METAR: MUHA 190855Z 00000KT 8000 FEW025 10/09 Q1022

Saat: 04:21 (09:21 UTC)

Tahmin

Rapor saat 05:00 UTC de 4 saat ve 21 dakika önce yapıldı.
Ayın 19'si saat 06 UTC'den ayın 20'si saat 06 UTC'ye kadar geçerli Tahmin
Rüzgar kuzeydoğudan 8 kt
Görüş mesafesi: 9000 m
2000 ft yükseklikte az bulutlu
Dönüşüyor
ayın 19'si saat 14 UTC'den ayın 19'si saat 15 UTC'ye kadar
Rüzgar kuzeydoğudan 15 kt
Dönüşüyor
ayın 20'si saat 01 UTC'den ayın 20'si saat 03 UTC'ye kadar
Rüzgar kuzeydoğudan 8 kt

TAF: MUHA 190500Z 1906/2006 04008KT 9000 FEW020 BECMG 1914/1915 04015KT BECMG 2001/2003 04008KT

4.000'den fazla havaalanı için hava durumu gözlemleri ve tahminleri (METAR ve TAF raporları).

Kullanılabilir istasyonlar harita üzerinde sarı ve kırmızı noktalarla gösterilir.

İstasyonun adını görmek için fareyi noktanın üzerinde gezdirin.

Sonrasında hava gözlem ve tahminlerini görmek için tıklayın.

Haritayı değiştirmek için: yaklaştırmak için siyah artı işaretli yeşil düğmeye ve uzaklaştırmak için de eksi işaretli düğmeye hızla tıklayın; bitişik haritalar için yeşil okları kullanın.


METAR-TAF: